CSH3 weather

Calgary/South Health Campus Hospital Helipad
Calgary, Alberta, Canada

Public forecast

Using degrees Celsius for public forecast. Weather courtesy of forecast.io.

METAR (pilot weather report)

Closest report is Calgary International Airport, 14.1 nm (26.1 km) N. Retrieved 2019/06/16 16:00 UTC (47 minutes ago):

CYYC 161600Z 06004KT 320V070 40SM FEW036 17/08 A3007 RMK CU1 CU TR SLP184 DENSITY ALT 4500FT

TAF (pilot weather forecast)

Closest forecast is Calgary International Airport, 14.1 nm (26.1 km) N. Retrieved 2019/06/16 15:41 UTC (1 hour ago):

TAF CYYC 161438Z 1615/1712 VRB03KT P6SM FEW080 FM161900 35008KT P6SM SCT080 FM162300 02008KT P6SM SCT060 TEMPO 1623/1705 P6SM -SHRA BKN060 PROB30 1623/1705 VRB15G25KT 4SM TSRA BR BKN030CB FM170500 20008KT P6SM FEW040 RMK NXT FCST BY 161800Z